createdAt,value
2019-03-15T00:30:29.928Z,95213.93
2019-03-15T00:33:01.587Z,95186.43
2019-03-15T00:35:32.101Z,95141.40
2019-03-15T00:38:02.912Z,95122.83
2019-03-15T00:40:33.514Z,95151.81
2019-03-15T00:43:03.990Z,95135.55
2019-03-15T00:45:34.388Z,95176.95
2019-03-15T00:48:04.843Z,95221.59
2019-03-15T00:50:35.141Z,95219.98
2019-03-15T00:53:05.508Z,95175.96
2019-03-15T00:55:36.266Z,95199.77
2019-03-15T00:58:06.706Z,95217.05
2019-03-15T01:00:37.108Z,95194.23
2019-03-15T01:03:07.465Z,95179.89
2019-03-15T01:05:37.868Z,95150.88
2019-03-15T01:08:08.347Z,95166.36
2019-03-15T01:10:38.664Z,95110.12
2019-03-15T01:13:09.053Z,95142.39
2019-03-15T01:15:41.625Z,95173.22
2019-03-15T01:18:11.961Z,95166.86
2019-03-15T01:20:42.487Z,95129.69
2019-03-15T01:23:12.895Z,95116.97
2019-03-15T01:25:44.141Z,95097.59
2019-03-15T01:28:14.529Z,95079.53
2019-03-15T01:30:44.974Z,95054.42
2019-03-15T01:33:15.384Z,95045.92
2019-03-15T01:35:45.881Z,95058.97
2019-03-15T01:38:16.339Z,95042.50
2019-03-15T01:40:48.820Z,95037.45
2019-03-15T01:43:21.122Z,95037.45
2019-03-15T01:45:52.855Z,94987.01
2019-03-15T01:48:23.221Z,94925.79
2019-03-15T01:50:53.799Z,94971.07
2019-03-15T01:53:24.427Z,94921.55
2019-03-15T01:55:56.953Z,94921.55
2019-03-15T01:58:30.923Z,94889.51
2019-03-15T02:01:01.338Z,94944.65
2019-03-15T02:03:36.025Z,94937.17
2019-03-15T02:06:06.337Z,94921.25
2019-03-15T02:08:39.416Z,94881.16
2019-03-15T02:11:09.874Z,94932.76
2019-03-15T02:13:40.801Z,94938.48
2019-03-15T02:16:11.212Z,94894.23
2019-03-15T02:18:41.702Z,94899.41
2019-03-15T02:21:12.104Z,94899.41
2019-03-15T02:23:42.453Z,94849.63
2019-03-15T02:26:12.851Z,94849.63
2019-03-15T02:28:43.252Z,94906.25
2019-03-15T02:31:13.836Z,94902.20
2019-03-15T02:33:44.198Z,94839.70
2019-03-15T02:36:14.562Z,94816.94
2019-03-15T02:38:45.238Z,94828.14
2019-03-15T02:41:15.673Z,94828.14
2019-03-15T02:43:46.460Z,94829.44
2019-03-15T02:46:16.889Z,94830.25
2019-03-15T02:48:47.197Z,94826.70
2019-03-15T02:51:17.929Z,94813.20
2019-03-15T02:53:48.275Z,94823.28
2019-03-15T02:56:18.615Z,94836.28
2019-03-15T02:58:49.131Z,94816.13
2019-03-15T03:01:19.509Z,94790.26
2019-03-15T03:03:50.780Z,94812.21
2019-03-15T03:06:21.108Z,94786.53
2019-03-15T03:08:51.549Z,94748.47
2019-03-15T03:11:21.898Z,94772.91
2019-03-15T03:13:52.324Z,94811.59
2019-03-15T03:16:22.807Z,94811.59
2019-03-15T03:18:54.056Z,94809.59
2019-03-15T03:21:24.492Z,94762.16
2019-03-15T03:23:54.885Z,94746.23
2019-03-15T03:26:25.281Z,94747.36
2019-03-15T03:28:55.746Z,94736.14
2019-03-15T03:31:26.158Z,94759.42
2019-03-15T03:33:56.567Z,94720.84
2019-03-15T03:36:26.926Z,94720.84
2019-03-15T03:38:58.960Z,94687.53
2019-03-15T03:41:31.833Z,94694.18
2019-03-15T03:44:05.034Z,94694.18
2019-03-15T03:46:37.546Z,94728.30
2019-03-15T03:49:07.859Z,94693.87
2019-03-15T03:51:38.271Z,94693.06
2019-03-15T03:54:08.772Z,94671.63
2019-03-15T03:56:39.121Z,94684.30
2019-03-15T03:59:09.603Z,94696.10
2019-03-15T04:01:40.143Z,94685.42
2019-03-15T04:04:10.552Z,94648.69
2019-03-15T04:06:40.938Z,94619.47
2019-03-15T04:09:14.901Z,94619.47
2019-03-15T04:11:55.475Z,94634.41
2019-03-15T04:14:17.967Z,94602.38
2019-03-15T04:16:51.235Z,94585.67
2019-03-15T04:19:22.828Z,94611.33
2019-03-15T04:21:55.571Z,94634.41
2019-03-15T04:24:27.688Z,94631.48
2019-03-15T04:26:58.209Z,94603.19
2019-03-15T04:29:29.650Z,94605.48
2019-03-15T04:32:00.051Z,94588.90
2019-03-15T04:34:30.435Z,94615.55
2019-03-15T04:37:00.798Z,94641.23
2019-03-15T04:39:31.230Z,94630.98
2019-03-15T04:42:05.454Z,94677.46
2019-03-15T04:44:36.964Z,94621.73
2019-03-15T04:47:09.456Z,94630.36
2019-03-15T04:49:39.865Z,94645.46
2019-03-15T04:52:10.204Z,94667.70
2019-03-15T04:54:41.374Z,94610.52
2019-03-15T04:57:11.829Z,94507.83
2019-03-15T04:59:42.207Z,94604.37
2019-03-15T05:02:12.492Z,94654.72
2019-03-15T05:05:04.540Z,94491.98
2019-03-15T05:07:36.334Z,94647.58
2019-03-15T05:10:06.768Z,94631.98
2019-03-15T05:12:37.194Z,94605.80
2019-03-15T05:15:08.003Z,94693.56
2019-03-15T05:17:38.402Z,94652.11
2019-03-15T05:20:09.116Z,94725.07
2019-03-15T05:22:39.523Z,94726.37
2019-03-15T05:25:10.027Z,94706.86
2019-03-15T05:27:40.350Z,94646.02
2019-03-15T05:30:16.365Z,94694.18
2019-03-15T05:33:02.489Z,94663.67
2019-03-15T05:35:34.733Z,94701.52
2019-03-15T05:38:05.479Z,94706.05
2019-03-15T05:40:36.390Z,94689.02
2019-03-15T05:43:07.498Z,94707.16
2019-03-15T05:45:51.233Z,94694.98
2019-03-15T05:48:25.402Z,94713.70
2019-03-15T05:50:57.783Z,94710.77
2019-03-15T05:53:33.221Z,94729.98
2019-03-15T05:56:08.757Z,94741.70
2019-03-15T05:58:49.340Z,94707.85
2019-03-15T06:01:24.248Z,94706.23
2019-03-15T06:04:17.711Z,94755.19
2019-03-15T06:07:49.618Z,94720.22
2019-03-15T06:09:58.568Z,94705.13
2019-03-15T06:12:58.572Z,94737.44
2019-03-15T06:15:53.585Z,94728.98
2019-03-15T06:18:30.215Z,94706.73
2019-03-15T06:21:15.219Z,94789.02
2019-03-15T06:23:55.863Z,94828.39
2019-03-15T06:26:37.646Z,94828.39
2019-03-15T06:29:21.228Z,94805.75
2019-03-15T06:31:55.389Z,94842.81
2019-03-15T06:34:35.361Z,94861.08
2019-03-15T06:37:04.721Z,94923.05
2019-03-15T06:39:36.987Z,94946.02
2019-03-15T06:42:11.465Z,94920.62
2019-03-15T06:44:41.715Z,94910.54
2019-03-15T06:47:16.946Z,94938.36
2019-03-15T06:49:49.184Z,94974.49
2019-03-15T06:52:33.228Z,94943.09
2019-03-15T06:55:23.791Z,94994.05
2019-03-15T06:58:01.338Z,94991.92
2019-03-15T07:01:34.804Z,95041.13
2019-03-15T07:03:22.370Z,95069.47
2019-03-15T07:05:54.269Z,95110.55
2019-03-15T07:19:37.113Z,95193.03
2019-03-15T07:22:28.419Z,95225.64
2019-03-15T07:25:39.748Z,95197.40
2019-03-15T07:28:30.794Z,95190.23
2019-03-15T07:37:52.067Z,95268.80
2019-03-15T07:40:44.559Z,95244.84
2019-03-15T07:44:00.554Z,95309.75
2019-03-15T07:53:08.138Z,95362.15
2019-03-15T07:59:29.060Z,95390.86
2019-03-15T08:02:42.972Z,95450.13
2019-03-15T08:05:56.508Z,95526.91
2019-03-15T08:11:42.064Z,95668.11
2019-03-15T08:17:55.933Z,95808.61
2019-03-15T08:26:57.060Z,95858.88
2019-03-15T08:29:52.902Z,95934.01
2019-03-15T08:32:50.970Z,95959.06
2019-03-15T08:45:22.061Z,96079.00
2019-03-15T08:48:11.528Z,96037.39
2019-03-15T08:54:19.915Z,96014.28
2019-03-15T08:57:46.606Z,96052.47
2019-03-15T09:04:21.330Z,96112.30
2019-03-15T09:31:09.632Z,96168.03
2019-03-15T09:37:06.808Z,96115.75
2019-03-15T09:43:46.993Z,96192.80
2019-03-15T09:46:49.654Z,96262.70
2019-03-15T10:09:45.669Z,96403.20
2019-03-15T10:12:29.199Z,96440.52
2019-03-15T10:20:57.424Z,96493.08
2019-03-15T10:24:25.711Z,96471.55
2019-03-15T11:05:22.211Z,96606.66
2019-03-15T11:10:10.221Z,96635.27
2019-03-15T11:57:00.668Z,96538.11
2019-03-15T11:59:46.590Z,96512.64
2019-03-15T12:02:39.671Z,96499.66
2019-03-15T12:08:22.351Z,96503.94
2019-03-15T12:14:26.116Z,96555.20
2019-03-15T12:17:31.121Z,96561.11
2019-03-15T12:20:44.238Z,96562.92
2019-03-15T12:23:51.072Z,96541.56
2019-03-15T12:32:49.072Z,96462.71
2019-03-15T12:35:34.872Z,96466.98
2019-03-15T12:38:27.627Z,96471.25
2019-03-15T12:53:27.392Z,96522.51
2019-03-15T12:56:32.043Z,96458.61
2019-03-15T12:59:13.914Z,96428.84
2019-03-15T13:02:03.905Z,96388.14
2019-03-15T13:11:36.391Z,96324.27
2019-03-15T13:17:11.690Z,96336.57
2019-03-15T13:22:59.412Z,96327.22
2019-03-15T13:23:35.141Z,96303.43
2019-03-15T13:29:27.987Z,96319.19
2019-03-15T13:34:57.436Z,96311.96
2019-03-15T13:40:43.468Z,96258.81
2019-03-15T13:43:35.802Z,96249.97
2019-03-15T13:46:21.388Z,96210.23
2019-03-15T13:52:24.856Z,96158.75
2019-03-15T13:55:17.076Z,96213.36
2019-03-15T14:02:25.923Z,96166.95
2019-03-15T14:13:12.136Z,96165.64
2019-03-15T14:16:06.078Z,96204.66
2019-03-15T14:33:48.996Z,96130.23
2019-03-15T14:42:52.417Z,96185.16
2019-03-15T14:45:43.203Z,96169.91
2019-03-15T14:54:45.878Z,96154.49
2019-03-15T14:58:00.357Z,96189.91
2019-03-15T15:56:11.752Z,95895.46
2019-03-15T15:59:11.375Z,95872.55
2019-03-15T16:05:26.009Z,95870.24
2019-03-15T16:07:58.016Z,95845.70
2019-03-15T16:11:14.796Z,95836.88
2019-03-15T16:14:13.299Z,95834.75
2019-03-15T16:16:53.897Z,95822.63
2019-03-15T16:19:54.289Z,95813.80
2019-03-15T16:22:36.054Z,95797.11
2019-03-15T16:25:38.123Z,95807.28
2019-03-15T16:30:44.555Z,95837.38
2019-03-15T16:40:49.450Z,95783.36
2019-03-15T16:49:43.573Z,95776.48
2019-03-15T16:52:18.712Z,95730.06
2019-03-15T16:55:42.093Z,95715.00
2019-03-15T17:08:34.439Z,95712.73
2019-03-15T17:11:25.296Z,95672.32
2019-03-15T17:17:52.522Z,95674.77
2019-03-15T17:21:08.094Z,95632.08
2019-03-15T17:24:32.739Z,95671.19
2019-03-15T17:27:05.235Z,95645.69
2019-03-15T17:29:37.805Z,95626.56
2019-03-15T17:32:08.753Z,95637.87
2019-03-15T17:34:39.502Z,95618.88
2019-03-15T17:37:10.366Z,95616.27
2019-03-15T17:39:43.917Z,95624.44
2019-03-15T17:42:13.057Z,95683.61
2019-03-15T17:44:45.098Z,95621.82
2019-03-15T17:47:21.547Z,95584.58
2019-03-15T17:49:59.133Z,95599.89
2019-03-15T17:52:29.554Z,95609.39
2019-03-15T17:54:59.960Z,95641.13
2019-03-15T17:57:32.500Z,95651.88
2019-03-15T18:00:23.211Z,95678.70
2019-03-15T18:02:53.766Z,95707.49
2019-03-15T18:05:24.312Z,95702.92
2019-03-15T18:07:55.432Z,95646.19
2019-03-15T18:10:26.098Z,95641.44
2019-03-15T18:13:00.246Z,95626.07
2019-03-15T18:15:37.560Z,95623.12
2019-03-15T18:18:08.336Z,95589.14
2019-03-15T18:20:39.122Z,95595.02
2019-03-15T18:23:21.018Z,95643.38
2019-03-15T18:26:13.095Z,95645.69
2019-03-15T18:28:49.362Z,95656.81
2019-03-15T18:31:24.754Z,95614.95
2019-03-15T18:33:56.209Z,95624.13
2019-03-15T18:36:28.782Z,95671.69
2019-03-15T18:45:49.427Z,95611.37
2019-03-15T18:48:22.318Z,95606.13
2019-03-15T18:50:53.719Z,95548.44
2019-03-15T18:53:27.654Z,95608.26
2019-03-15T18:56:00.344Z,95566.24
2019-03-15T18:58:31.846Z,95577.70
2019-03-15T19:01:08.659Z,95579.52
2019-03-15T19:03:42.756Z,95566.06
2019-03-15T19:06:14.111Z,95618.06
2019-03-15T19:08:47.766Z,95548.94
2019-03-15T19:11:22.355Z,95607.12
2019-03-15T19:13:55.640Z,95549.43
2019-03-15T19:16:26.479Z,95525.26
2019-03-15T19:19:01.609Z,95512.02
2019-03-15T19:22:02.345Z,95542.74
2019-03-15T19:24:43.331Z,95543.38
2019-03-15T19:27:51.939Z,95508.77
2019-03-15T19:30:30.037Z,95500.09
2019-03-15T19:33:01.261Z,95508.45
2019-03-15T19:35:37.370Z,95475.94
2019-03-15T19:38:22.978Z,95490.79
2019-03-15T19:40:55.931Z,95508.27
2019-03-15T19:43:29.792Z,95487.05
2019-03-15T19:46:04.094Z,95515.64
2019-03-15T19:48:44.550Z,95515.64
2019-03-15T19:51:14.736Z,95471.37
2019-03-15T19:53:47.789Z,95459.10
2019-03-15T19:56:19.517Z,95494.41
2019-03-15T19:58:50.748Z,95488.35
2019-03-15T20:01:28.819Z,95545.68
2019-03-15T20:04:09.043Z,95535.88
2019-03-15T20:06:49.947Z,95490.16
2019-03-15T20:09:21.832Z,95509.58
2019-03-15T20:11:52.933Z,95537.81
2019-03-15T20:14:23.711Z,95569.36
2019-03-15T20:16:56.114Z,95529.33
2019-03-15T20:19:26.719Z,95518.57
2019-03-15T20:21:57.384Z,95510.89
2019-03-15T20:24:29.266Z,95497.34
2019-03-15T20:27:01.470Z,95508.14
2019-03-15T20:29:34.434Z,95513.02
2019-03-15T20:32:06.632Z,95489.34
2019-03-15T20:34:38.170Z,95450.30
2019-03-15T20:37:11.702Z,95428.75
2019-03-15T20:39:42.595Z,95483.97
2019-03-15T20:42:27.812Z,95435.30
2019-03-15T20:45:02.020Z,95432.69
2019-03-15T20:47:36.115Z,95508.27
2019-03-15T20:50:06.814Z,95452.59
2019-03-15T20:52:37.998Z,95421.27
2019-03-15T20:55:10.282Z,95420.09
2019-03-15T20:57:40.952Z,95409.48
2019-03-15T21:00:13.453Z,95448.53
2019-03-15T21:02:44.064Z,95410.66
2019-03-15T21:05:14.921Z,95407.53
2019-03-15T21:07:45.933Z,95383.06
2019-03-15T21:10:22.487Z,95436.61
2019-03-15T21:12:55.972Z,95408.71
2019-03-15T21:15:26.371Z,95389.93
2019-03-15T21:17:59.248Z,95407.53
2019-03-15T21:20:32.753Z,95378.33
2019-03-15T21:23:03.593Z,95368.72
2019-03-15T21:25:38.377Z,95348.47
2019-03-15T21:28:11.606Z,95331.81
2019-03-15T21:30:48.243Z,95316.47
2019-03-15T21:34:26.665Z,95306.55
2019-03-15T21:37:04.184Z,95292.52
2019-03-15T21:39:35.157Z,95285.03
2019-03-15T21:42:06.553Z,95276.86
2019-03-15T21:44:40.673Z,95277.67
2019-03-15T21:47:12.300Z,95284.53
2019-03-15T21:49:42.883Z,95276.36
2019-03-15T21:52:13.344Z,95293.01
2019-03-15T21:54:46.566Z,95306.86
2019-03-15T21:57:27.541Z,95297.56
2019-03-15T22:00:03.961Z,95302.80
2019-03-15T22:02:34.827Z,95289.58
2019-03-15T22:05:05.799Z,95274.73
2019-03-15T22:07:37.678Z,95263.52
2019-03-15T22:10:14.096Z,95248.64
2019-03-15T22:12:44.588Z,95233.94
2019-03-15T22:15:15.609Z,95243.09
2019-03-15T22:17:46.310Z,95246.39
2019-03-15T22:20:18.114Z,95237.55
2019-03-15T22:22:48.651Z,95269.69
2019-03-15T22:25:19.136Z,95244.40
2019-03-15T22:27:50.354Z,95216.66
2019-03-15T22:30:21.186Z,95255.84
2019-03-15T22:32:52.757Z,95226.95
2019-03-15T22:35:23.414Z,95224.83
2019-03-15T22:37:54.539Z,95209.67
2019-03-15T22:41:03.271Z,95182.67
2019-03-15T22:43:34.283Z,95182.67
2019-03-15T22:46:05.482Z,95202.32
2019-03-15T22:48:45.962Z,95197.14
2019-03-15T22:51:13.704Z,95192.22
2019-03-15T22:54:08.220Z,95194.03
2019-03-15T22:56:50.579Z,95246.02
2019-03-15T22:59:21.250Z,95258.45
2019-03-15T23:01:51.670Z,95269.73
2019-03-15T23:04:22.098Z,95252.41
2019-03-15T23:06:52.642Z,95221.89
2019-03-15T23:09:23.008Z,95193.22
2019-03-15T23:11:55.987Z,95235.92
2019-03-15T23:14:26.662Z,95217.34
2019-03-15T23:16:57.058Z,95173.52
2019-03-15T23:19:34.651Z,95160.81
2019-03-15T23:22:06.289Z,95168.78
2019-03-15T23:24:37.250Z,95177.58
2019-03-15T23:27:07.671Z,95190.97
2019-03-15T23:29:38.082Z,95152.83
2019-03-15T23:32:08.480Z,95145.63
2019-03-15T23:34:39.691Z,95145.63
2019-03-15T23:37:10.134Z,95136.53
2019-03-15T23:39:40.558Z,95140.09
2019-03-15T23:42:12.684Z,95140.09
2019-03-15T23:44:43.377Z,95124.77
2019-03-15T23:47:16.889Z,95126.56
2019-03-15T23:49:47.331Z,95109.80
2019-03-15T23:52:18.084Z,95191.97
2019-03-15T23:54:48.455Z,95191.97
2019-03-15T23:57:18.884Z,95181.81
2019-03-15T23:59:49.334Z,95146.13
